sensor_id;sensor_type;location;lat;lon;timestamp;temperature;humidity
45785;DHT22;31489;51.404;5.474;2023-04-03T00:01:16;7.80;69.90
45785;DHT22;31489;51.404;5.474;2023-04-03T00:03:42;7.80;70.00
45785;DHT22;31489;51.404;5.474;2023-04-03T00:06:08;7.80;70.10
45785;DHT22;31489;51.404;5.474;2023-04-03T00:08:35;7.80;70.10
45785;DHT22;31489;51.404;5.474;2023-04-03T00:11:02;7.70;70.10
45785;DHT22;31489;51.404;5.474;2023-04-03T00:13:28;7.70;70.20
45785;DHT22;31489;51.404;5.474;2023-04-03T00:15:53;7.70;70.20
45785;DHT22;31489;51.404;5.474;2023-04-03T00:18:19;7.70;70.30
45785;DHT22;31489;51.404;5.474;2023-04-03T00:20:45;7.60;70.20
45785;DHT22;31489;51.404;5.474;2023-04-03T00:23:11;7.60;70.30
45785;DHT22;31489;51.404;5.474;2023-04-03T00:25:37;7.60;70.30
45785;DHT22;31489;51.404;5.474;2023-04-03T00:28:03;7.60;70.40
45785;DHT22;31489;51.404;5.474;2023-04-03T00:30:29;7.50;70.20
45785;DHT22;31489;51.404;5.474;2023-04-03T00:32:55;7.50;70.40
45785;DHT22;31489;51.404;5.474;2023-04-03T00:35:22;7.50;70.40
45785;DHT22;31489;51.404;5.474;2023-04-03T00:37:50;7.50;70.40
45785;DHT22;31489;51.404;5.474;2023-04-03T00:40:16;7.50;70.40
45785;DHT22;31489;51.404;5.474;2023-04-03T00:42:43;7.40;70.50
45785;DHT22;31489;51.404;5.474;2023-04-03T00:47:43;7.40;70.30
45785;DHT22;31489;51.404;5.474;2023-04-03T00:50:10;7.40;70.60
45785;DHT22;31489;51.404;5.474;2023-04-03T00:52:36;7.30;70.60
45785;DHT22;31489;51.404;5.474;2023-04-03T00:55:06;7.30;70.60
45785;DHT22;31489;51.404;5.474;2023-04-03T00:57:32;7.30;70.60
45785;DHT22;31489;51.404;5.474;2023-04-03T01:00:05;7.30;70.70
45785;DHT22;31489;51.404;5.474;2023-04-03T01:02:31;7.30;70.60
45785;DHT22;31489;51.404;5.474;2023-04-03T01:04:57;7.30;70.70
45785;DHT22;31489;51.404;5.474;2023-04-03T01:07:26;7.20;70.70
45785;DHT22;31489;51.404;5.474;2023-04-03T01:09:57;7.20;70.70
45785;DHT22;31489;51.404;5.474;2023-04-03T01:12:30;7.20;70.70
45785;DHT22;31489;51.404;5.474;2023-04-03T01:15:07;7.10;70.60
45785;DHT22;31489;51.404;5.474;2023-04-03T01:17:38;7.10;70.70
45785;DHT22;31489;51.404;5.474;2023-04-03T01:28:07;7.00;70.80
45785;DHT22;31489;51.404;5.474;2023-04-03T01:30:43;7.00;71.00
45785;DHT22;31489;51.404;5.474;2023-04-03T01:33:11;7.00;70.80
45785;DHT22;31489;51.404;5.474;2023-04-03T01:35:37;7.00;71.20
45785;DHT22;31489;51.404;5.474;2023-04-03T01:38:03;7.00;71.20
45785;DHT22;31489;51.404;5.474;2023-04-03T01:40:28;7.00;71.30
45785;DHT22;31489;51.404;5.474;2023-04-03T01:42:54;6.90;71.20
45785;DHT22;31489;51.404;5.474;2023-04-03T01:45:20;6.90;71.20
45785;DHT22;31489;51.404;5.474;2023-04-03T01:47:45;6.90;71.20
45785;DHT22;31489;51.404;5.474;2023-04-03T01:50:11;6.90;71.30
45785;DHT22;31489;51.404;5.474;2023-04-03T01:52:37;6.90;71.30
45785;DHT22;31489;51.404;5.474;2023-04-03T01:55:03;6.90;71.50
45785;DHT22;31489;51.404;5.474;2023-04-03T01:57:28;6.90;71.50
45785;DHT22;31489;51.404;5.474;2023-04-03T01:59:54;6.90;71.50
45785;DHT22;31489;51.404;5.474;2023-04-03T02:02:19;6.80;71.40
45785;DHT22;31489;51.404;5.474;2023-04-03T02:04:46;6.80;71.50
45785;DHT22;31489;51.404;5.474;2023-04-03T02:07:11;6.80;71.50
45785;DHT22;31489;51.404;5.474;2023-04-03T02:09:37;6.80;71.60
45785;DHT22;31489;51.404;5.474;2023-04-03T02:12:03;6.80;72.40
45785;DHT22;31489;51.404;5.474;2023-04-03T02:14:28;6.80;71.90
45785;DHT22;31489;51.404;5.474;2023-04-03T02:16:54;6.80;72.10
45785;DHT22;31489;51.404;5.474;2023-04-03T02:19:20;6.80;72.30
45785;DHT22;31489;51.404;5.474;2023-04-03T02:21:46;6.80;72.10
45785;DHT22;31489;51.404;5.474;2023-04-03T02:24:11;6.80;72.20
45785;DHT22;31489;51.404;5.474;2023-04-03T02:26:37;6.90;72.20
45785;DHT22;31489;51.404;5.474;2023-04-03T02:29:02;6.80;72.20
45785;DHT22;31489;51.404;5.474;2023-04-03T02:31:28;6.80;72.30
45785;DHT22;31489;51.404;5.474;2023-04-03T02:33:53;6.80;72.30
45785;DHT22;31489;51.404;5.474;2023-04-03T02:36:19;6.80;72.40
45785;DHT22;31489;51.404;5.474;2023-04-03T02:38:45;6.80;72.50
45785;DHT22;31489;51.404;5.474;2023-04-03T02:41:12;6.80;72.50
45785;DHT22;31489;51.404;5.474;2023-04-03T02:43:38;6.90;72.60
45785;DHT22;31489;51.404;5.474;2023-04-03T02:46:04;6.80;72.60
45785;DHT22;31489;51.404;5.474;2023-04-03T02:48:30;6.90;72.70
45785;DHT22;31489;51.404;5.474;2023-04-03T02:50:55;6.90;72.70
45785;DHT22;31489;51.404;5.474;2023-04-03T02:53:21;6.90;72.70
45785;DHT22;31489;51.404;5.474;2023-04-03T02:55:47;6.90;72.80
45785;DHT22;31489;51.404;5.474;2023-04-03T02:58:12;6.90;72.90
45785;DHT22;31489;51.404;5.474;2023-04-03T03:00:38;6.90;72.90
45785;DHT22;31489;51.404;5.474;2023-04-03T03:03:04;6.90;72.80
45785;DHT22;31489;51.404;5.474;2023-04-03T03:05:30;7.00;72.80
45785;DHT22;31489;51.404;5.474;2023-04-03T03:07:56;7.00;72.80
45785;DHT22;31489;51.404;5.474;2023-04-03T03:10:22;7.00;72.80
45785;DHT22;31489;51.404;5.474;2023-04-03T03:12:48;7.00;72.80
45785;DHT22;31489;51.404;5.474;2023-04-03T03:15:14;7.00;72.80
45785;DHT22;31489;51.404;5.474;2023-04-03T03:17:41;7.00;72.80
45785;DHT22;31489;51.404;5.474;2023-04-03T03:20:08;7.00;72.70
45785;DHT22;31489;51.404;5.474;2023-04-03T03:22:34;7.00;72.60
45785;DHT22;31489;51.404;5.474;2023-04-03T03:25:00;7.00;72.60
45785;DHT22;31489;51.404;5.474;2023-04-03T03:27:26;7.00;72.60
45785;DHT22;31489;51.404;5.474;2023-04-03T03:29:52;7.00;72.60
45785;DHT22;31489;51.404;5.474;2023-04-03T03:32:17;6.90;72.60
45785;DHT22;31489;51.404;5.474;2023-04-03T03:34:43;7.00;72.80
45785;DHT22;31489;51.404;5.474;2023-04-03T03:37:09;6.90;72.80
45785;DHT22;31489;51.404;5.474;2023-04-03T03:39:34;7.00;72.70
45785;DHT22;31489;51.404;5.474;2023-04-03T03:42:00;7.00;72.80
45785;DHT22;31489;51.404;5.474;2023-04-03T03:44:26;7.00;72.70
45785;DHT22;31489;51.404;5.474;2023-04-03T03:46:53;7.00;72.60
45785;DHT22;31489;51.404;5.474;2023-04-03T03:49:18;7.00;72.70
45785;DHT22;31489;51.404;5.474;2023-04-03T03:51:44;6.90;72.60
45785;DHT22;31489;51.404;5.474;2023-04-03T03:54:10;7.00;72.50
45785;DHT22;31489;51.404;5.474;2023-04-03T03:56:36;7.00;72.50
45785;DHT22;31489;51.404;5.474;2023-04-03T03:59:02;6.90;72.50
45785;DHT22;31489;51.404;5.474;2023-04-03T04:01:27;6.90;72.50
45785;DHT22;31489;51.404;5.474;2023-04-03T04:03:53;6.90;72.50
45785;DHT22;31489;51.404;5.474;2023-04-03T04:06:22;6.90;72.50
45785;DHT22;31489;51.404;5.474;2023-04-03T04:08:47;6.90;72.50
45785;DHT22;31489;51.404;5.474;2023-04-03T04:11:13;6.90;72.40
45785;DHT22;31489;51.404;5.474;2023-04-03T04:13:39;6.90;72.40
45785;DHT22;31489;51.404;5.474;2023-04-03T04:16:06;6.80;72.30
45785;DHT22;31489;51.404;5.474;2023-04-03T04:18:32;6.80;72.30
45785;DHT22;31489;51.404;5.474;2023-04-03T04:20:57;6.80;72.40
45785;DHT22;31489;51.404;5.474;2023-04-03T04:23:23;6.80;72.40
45785;DHT22;31489;51.404;5.474;2023-04-03T04:25:49;6.80;72.50
45785;DHT22;31489;51.404;5.474;2023-04-03T04:28:15;6.80;72.50
45785;DHT22;31489;51.404;5.474;2023-04-03T04:30:41;6.70;72.50
45785;DHT22;31489;51.404;5.474;2023-04-03T04:33:07;6.80;72.60
45785;DHT22;31489;51.404;5.474;2023-04-03T04:35:33;6.70;72.50
45785;DHT22;31489;51.404;5.474;2023-04-03T04:37:59;6.70;72.40
45785;DHT22;31489;51.404;5.474;2023-04-03T04:40:25;6.70;72.50
45785;DHT22;31489;51.404;5.474;2023-04-03T04:42:51;6.70;72.50
45785;DHT22;31489;51.404;5.474;2023-04-03T04:45:17;6.70;72.50
45785;DHT22;31489;51.404;5.474;2023-04-03T04:47:43;6.70;72.50
45785;DHT22;31489;51.404;5.474;2023-04-03T04:50:09;6.70;72.50
45785;DHT22;31489;51.404;5.474;2023-04-03T04:52:35;6.70;72.50
45785;DHT22;31489;51.404;5.474;2023-04-03T04:55:01;6.70;72.50
45785;DHT22;31489;51.404;5.474;2023-04-03T04:57:26;6.70;72.50
45785;DHT22;31489;51.404;5.474;2023-04-03T04:59:52;6.70;72.50
45785;DHT22;31489;51.404;5.474;2023-04-03T05:02:17;6.70;72.50
45785;DHT22;31489;51.404;5.474;2023-04-03T05:04:43;6.70;72.60
45785;DHT22;31489;51.404;5.474;2023-04-03T05:07:09;6.70;72.60
45785;DHT22;31489;51.404;5.474;2023-04-03T05:09:34;6.70;72.50
45785;DHT22;31489;51.404;5.474;2023-04-03T05:12:00;6.70;72.50
45785;DHT22;31489;51.404;5.474;2023-04-03T05:14:25;6.70;72.60
45785;DHT22;31489;51.404;5.474;2023-04-03T05:16:51;6.70;72.50
45785;DHT22;31489;51.404;5.474;2023-04-03T05:19:20;6.70;72.50
45785;DHT22;31489;51.404;5.474;2023-04-03T05:21:46;6.70;72.40
45785;DHT22;31489;51.404;5.474;2023-04-03T05:24:13;6.70;72.50
45785;DHT22;31489;51.404;5.474;2023-04-03T05:26:39;6.60;72.40
45785;DHT22;31489;51.404;5.474;2023-04-03T05:29:05;6.60;72.40
45785;DHT22;31489;51.404;5.474;2023-04-03T05:31:30;6.60;72.40
45785;DHT22;31489;51.404;5.474;2023-04-03T05:33:56;6.60;72.40
45785;DHT22;31489;51.404;5.474;2023-04-03T05:36:22;6.60;72.40
45785;DHT22;31489;51.404;5.474;2023-04-03T05:38:48;6.60;72.50
45785;DHT22;31489;51.404;5.474;2023-04-03T05:41:15;6.60;72.60
45785;DHT22;31489;51.404;5.474;2023-04-03T05:43:41;6.60;72.50
45785;DHT22;31489;51.404;5.474;2023-04-03T05:46:10;6.60;72.50
45785;DHT22;31489;51.404;5.474;2023-04-03T05:48:39;6.60;72.50
45785;DHT22;31489;51.404;5.474;2023-04-03T05:51:06;6.60;72.70
45785;DHT22;31489;51.404;5.474;2023-04-03T05:53:35;6.60;72.60
45785;DHT22;31489;51.404;5.474;2023-04-03T05:56:03;6.60;72.60
45785;DHT22;31489;51.404;5.474;2023-04-03T05:58:28;6.60;72.80
45785;DHT22;31489;51.404;5.474;2023-04-03T06:00:54;6.60;72.80
45785;DHT22;31489;51.404;5.474;2023-04-03T06:03:20;6.70;72.80
45785;DHT22;31489;51.404;5.474;2023-04-03T06:05:46;6.70;72.80
45785;DHT22;31489;51.404;5.474;2023-04-03T06:08:12;6.70;72.70
45785;DHT22;31489;51.404;5.474;2023-04-03T06:10:38;6.70;72.80
45785;DHT22;31489;51.404;5.474;2023-04-03T06:13:04;6.70;72.70
45785;DHT22;31489;51.404;5.474;2023-04-03T06:15:30;6.70;72.60
45785;DHT22;31489;51.404;5.474;2023-04-03T06:17:56;6.70;72.80
45785;DHT22;31489;51.404;5.474;2023-04-03T06:20:22;6.70;72.80
45785;DHT22;31489;51.404;5.474;2023-04-03T06:22:48;6.80;72.80
45785;DHT22;31489;51.404;5.474;2023-04-03T06:25:14;6.80;72.80
45785;DHT22;31489;51.404;5.474;2023-04-03T06:27:40;6.80;72.80
45785;DHT22;31489;51.404;5.474;2023-04-03T06:30:07;6.90;72.80
45785;DHT22;31489;51.404;5.474;2023-04-03T06:32:32;6.80;72.80
45785;DHT22;31489;51.404;5.474;2023-04-03T06:34:58;6.90;72.80
45785;DHT22;31489;51.404;5.474;2023-04-03T06:37:24;6.90;72.80
45785;DHT22;31489;51.404;5.474;2023-04-03T06:39:54;6.90;72.70
45785;DHT22;31489;51.404;5.474;2023-04-03T06:42:20;7.00;72.70
45785;DHT22;31489;51.404;5.474;2023-04-03T06:44:46;7.00;72.70
45785;DHT22;31489;51.404;5.474;2023-04-03T06:47:16;7.00;72.60
45785;DHT22;31489;51.404;5.474;2023-04-03T06:49:42;7.00;72.50
45785;DHT22;31489;51.404;5.474;2023-04-03T06:52:09;7.10;72.70
45785;DHT22;31489;51.404;5.474;2023-04-03T06:54:35;7.10;72.60
45785;DHT22;31489;51.404;5.474;2023-04-03T06:57:01;7.10;72.50
45785;DHT22;31489;51.404;5.474;2023-04-03T06:59:27;7.20;72.50
45785;DHT22;31489;51.404;5.474;2023-04-03T07:01:53;7.20;72.50
45785;DHT22;31489;51.404;5.474;2023-04-03T07:04:19;7.20;72.50
45785;DHT22;31489;51.404;5.474;2023-04-03T07:06:47;7.30;72.50
45785;DHT22;31489;51.404;5.474;2023-04-03T07:09:16;7.30;72.50
45785;DHT22;31489;51.404;5.474;2023-04-03T07:11:42;7.30;72.20
45785;DHT22;31489;51.404;5.474;2023-04-03T07:14:07;7.30;72.80
45785;DHT22;31489;51.404;5.474;2023-04-03T07:16:34;7.40;72.20
45785;DHT22;31489;51.404;5.474;2023-04-03T07:19:01;7.40;72.10
45785;DHT22;31489;51.404;5.474;2023-04-03T07:21:27;7.40;72.10
45785;DHT22;31489;51.404;5.474;2023-04-03T07:23:53;7.50;72.20
45785;DHT22;31489;51.404;5.474;2023-04-03T07:26:18;7.50;72.20
45785;DHT22;31489;51.404;5.474;2023-04-03T07:28:46;7.50;72.10
45785;DHT22;31489;51.404;5.474;2023-04-03T07:31:14;7.60;72.10
45785;DHT22;31489;51.404;5.474;2023-04-03T07:33:43;7.60;72.10
45785;DHT22;31489;51.404;5.474;2023-04-03T07:36:09;7.60;72.00
45785;DHT22;31489;51.404;5.474;2023-04-03T07:38:37;7.70;72.00
45785;DHT22;31489;51.404;5.474;2023-04-03T07:41:03;7.70;72.00
45785;DHT22;31489;51.404;5.474;2023-04-03T07:43:29;7.80;71.80
45785;DHT22;31489;51.404;5.474;2023-04-03T07:45:54;7.80;71.80
45785;DHT22;31489;51.404;5.474;2023-04-03T07:48:24;7.80;71.80
45785;DHT22;31489;51.404;5.474;2023-04-03T07:50:51;7.90;71.80
45785;DHT22;31489;51.404;5.474;2023-04-03T07:53:17;7.90;72.10
45785;DHT22;31489;51.404;5.474;2023-04-03T07:55:45;8.00;71.90
45785;DHT22;31489;51.404;5.474;2023-04-03T07:58:14;8.00;71.80
45785;DHT22;31489;51.404;5.474;2023-04-03T08:00:40;8.10;71.60
45785;DHT22;31489;51.404;5.474;2023-04-03T08:03:07;8.10;71.60
45785;DHT22;31489;51.404;5.474;2023-04-03T08:05:39;8.20;71.40
45785;DHT22;31489;51.404;5.474;2023-04-03T08:08:06;8.20;71.30
45785;DHT22;31489;51.404;5.474;2023-04-03T08:10:32;8.20;71.60
45785;DHT22;31489;51.404;5.474;2023-04-03T08:12:58;8.30;71.60
45785;DHT22;31489;51.404;5.474;2023-04-03T08:15:24;8.40;71.60
45785;DHT22;31489;51.404;5.474;2023-04-03T08:17:49;8.40;71.50
45785;DHT22;31489;51.404;5.474;2023-04-03T08:20:16;8.40;71.40
45785;DHT22;31489;51.404;5.474;2023-04-03T08:22:41;8.50;70.90
45785;DHT22;31489;51.404;5.474;2023-04-03T08:25:07;8.60;71.00
45785;DHT22;31489;51.404;5.474;2023-04-03T08:27:33;8.60;70.40
45785;DHT22;31489;51.404;5.474;2023-04-03T08:29:59;8.70;69.60
45785;DHT22;31489;51.404;5.474;2023-04-03T08:32:25;8.80;69.40
45785;DHT22;31489;51.404;5.474;2023-04-03T08:34:51;8.80;69.90
45785;DHT22;31489;51.404;5.474;2023-04-03T08:37:16;8.80;70.70
45785;DHT22;31489;51.404;5.474;2023-04-03T08:39:42;8.90;70.10
45785;DHT22;31489;51.404;5.474;2023-04-03T08:45:31;9.00;68.60
45785;DHT22;31489;51.404;5.474;2023-04-03T08:48:05;9.10;69.70
45785;DHT22;31489;51.404;5.474;2023-04-03T08:50:51;9.20;69.30
45785;DHT22;31489;51.404;5.474;2023-04-03T08:53:21;9.30;68.90
45785;DHT22;31489;51.404;5.474;2023-04-03T08:55:50;9.30;69.60
45785;DHT22;31489;51.404;5.474;2023-04-03T08:58:22;9.40;69.40
45785;DHT22;31489;51.404;5.474;2023-04-03T09:01:05;9.40;68.90
45785;DHT22;31489;51.404;5.474;2023-04-03T09:03:38;9.50;68.30
45785;DHT22;31489;51.404;5.474;2023-04-03T09:08:43;9.70;68.40
45785;DHT22;31489;51.404;5.474;2023-04-03T09:11:36;9.70;67.60
45785;DHT22;31489;51.404;5.474;2023-04-03T09:21:48;10.00;66.90
45785;DHT22;31489;51.404;5.474;2023-04-03T09:24:15;10.10;66.90
45785;DHT22;31489;51.404;5.474;2023-04-03T09:26:59;10.10;66.60
45785;DHT22;31489;51.404;5.474;2023-04-03T09:29:26;10.20;65.10
45785;DHT22;31489;51.404;5.474;2023-04-03T09:32:02;10.30;65.10
45785;DHT22;31489;51.404;5.474;2023-04-03T09:34:41;10.30;62.50
45785;DHT22;31489;51.404;5.474;2023-04-03T09:37:07;10.40;61.70
45785;DHT22;31489;51.404;5.474;2023-04-03T09:39:54;10.50;62.50
45785;DHT22;31489;51.404;5.474;2023-04-03T09:42:23;10.50;60.00
45785;DHT22;31489;51.404;5.474;2023-04-03T09:44:58;10.60;62.00
45785;DHT22;31489;51.404;5.474;2023-04-03T09:47:29;10.60;60.60
45785;DHT22;31489;51.404;5.474;2023-04-03T09:52:40;10.70;61.40
45785;DHT22;31489;51.404;5.474;2023-04-03T09:55:21;10.90;62.50
45785;DHT22;31489;51.404;5.474;2023-04-03T10:00:33;11.00;62.10
45785;DHT22;31489;51.404;5.474;2023-04-03T10:03:00;11.10;60.90
45785;DHT22;31489;51.404;5.474;2023-04-03T10:10:47;11.30;57.90
45785;DHT22;31489;51.404;5.474;2023-04-03T10:13:17;11.40;58.90
45785;DHT22;31489;51.404;5.474;2023-04-03T10:15:55;11.50;60.50
45785;DHT22;31489;51.404;5.474;2023-04-03T10:21:35;11.70;58.00
45785;DHT22;31489;51.404;5.474;2023-04-03T10:24:43;11.70;57.90
45785;DHT22;31489;51.404;5.474;2023-04-03T10:27:32;11.90;57.90
45785;DHT22;31489;51.404;5.474;2023-04-03T10:33:20;12.30;57.90
45785;DHT22;31489;51.404;5.474;2023-04-03T10:44:09;14.70;59.80
45785;DHT22;31489;51.404;5.474;2023-04-03T10:46:47;15.40;59.00
45785;DHT22;31489;51.404;5.474;2023-04-03T10:52:22;16.80;58.20
45785;DHT22;31489;51.404;5.474;2023-04-03T10:57:40;18.00;57.80
45785;DHT22;31489;51.404;5.474;2023-04-03T11:00:23;18.50;58.80
45785;DHT22;31489;51.404;5.474;2023-04-03T11:03:03;19.00;53.80
45785;DHT22;31489;51.404;5.474;2023-04-03T11:05:39;19.50;52.80
45785;DHT22;31489;51.404;5.474;2023-04-03T11:08:32;19.90;53.60
45785;DHT22;31489;51.404;5.474;2023-04-03T11:11:22;20.30;52.40
45785;DHT22;31489;51.404;5.474;2023-04-03T11:16:31;21.00;49.80
45785;DHT22;31489;51.404;5.474;2023-04-03T11:19:18;21.20;49.80
45785;DHT22;31489;51.404;5.474;2023-04-03T11:24:43;21.70;46.60
45785;DHT22;31489;51.404;5.474;2023-04-03T11:27:23;21.90;48.10
45785;DHT22;31489;51.404;5.474;2023-04-03T11:29:50;22.00;44.90
45785;DHT22;31489;51.404;5.474;2023-04-03T11:32:59;22.10;45.70
45785;DHT22;31489;51.404;5.474;2023-04-03T11:35:06;22.20;46.90
45785;DHT22;31489;51.404;5.474;2023-04-03T11:37:46;22.30;44.80
45785;DHT22;31489;51.404;5.474;2023-04-03T11:42:51;22.40;42.70
45785;DHT22;31489;51.404;5.474;2023-04-03T11:48:00;22.50;41.10
45785;DHT22;31489;51.404;5.474;2023-04-03T12:14:00;22.10;39.00
45785;DHT22;31489;51.404;5.474;2023-04-03T12:24:35;21.80;39.30
45785;DHT22;31489;51.404;5.474;2023-04-03T12:27:25;21.70;38.40
45785;DHT22;31489;51.404;5.474;2023-04-03T12:30:51;21.60;39.40
45785;DHT22;31489;51.404;5.474;2023-04-03T12:33:02;21.50;41.00
45785;DHT22;31489;51.404;5.474;2023-04-03T12:38:39;21.40;38.90
45785;DHT22;31489;51.404;5.474;2023-04-03T12:46:44;21.30;38.60
45785;DHT22;31489;51.404;5.474;2023-04-03T12:51:46;21.30;38.10
45785;DHT22;31489;51.404;5.474;2023-04-03T12:54:30;21.30;39.80
45785;DHT22;31489;51.404;5.474;2023-04-03T12:57:34;21.30;37.90
45785;DHT22;31489;51.404;5.474;2023-04-03T13:00:19;21.40;38.40
45785;DHT22;31489;51.404;5.474;2023-04-03T13:02:45;21.40;38.10
45785;DHT22;31489;51.404;5.474;2023-04-03T13:05:17;21.40;39.40
45785;DHT22;31489;51.404;5.474;2023-04-03T13:07:43;21.30;37.40
45785;DHT22;31489;51.404;5.474;2023-04-03T13:12:35;21.30;39.70
45785;DHT22;31489;51.404;5.474;2023-04-03T13:15:16;21.30;39.10
45785;DHT22;31489;51.404;5.474;2023-04-03T13:17:43;21.30;38.80
45785;DHT22;31489;51.404;5.474;2023-04-03T13:20:30;21.40;38.70
45785;DHT22;31489;51.404;5.474;2023-04-03T13:23:06;21.40;38.00
45785;DHT22;31489;51.404;5.474;2023-04-03T13:25:36;21.40;37.20
45785;DHT22;31489;51.404;5.474;2023-04-03T13:28:04;21.50;38.50
45785;DHT22;31489;51.404;5.474;2023-04-03T13:30:36;21.60;38.30
45785;DHT22;31489;51.404;5.474;2023-04-03T13:33:21;21.60;38.00
45785;DHT22;31489;51.404;5.474;2023-04-03T13:35:48;21.60;38.40
45785;DHT22;31489;51.404;5.474;2023-04-03T13:40:56;21.70;39.70
45785;DHT22;31489;51.404;5.474;2023-04-03T13:43:29;21.70;38.10
45785;DHT22;31489;51.404;5.474;2023-04-03T13:45:59;21.70;37.90
45785;DHT22;31489;51.404;5.474;2023-04-03T13:48:26;21.70;38.10
45785;DHT22;31489;51.404;5.474;2023-04-03T13:51:00;21.70;38.90
45785;DHT22;31489;51.404;5.474;2023-04-03T13:53:27;21.80;37.50
45785;DHT22;31489;51.404;5.474;2023-04-03T13:56:05;21.80;38.70
45785;DHT22;31489;51.404;5.474;2023-04-03T13:58:35;21.80;37.40
45785;DHT22;31489;51.404;5.474;2023-04-03T14:01:10;21.80;37.80
45785;DHT22;31489;51.404;5.474;2023-04-03T14:06:16;21.80;37.10
45785;DHT22;31489;51.404;5.474;2023-04-03T14:08:44;21.80;37.80
45785;DHT22;31489;51.404;5.474;2023-04-03T14:11:30;21.80;38.00
45785;DHT22;31489;51.404;5.474;2023-04-03T14:13:59;21.80;37.00
45785;DHT22;31489;51.404;5.474;2023-04-03T14:16:30;21.80;38.00
45785;DHT22;31489;51.404;5.474;2023-04-03T14:18:58;21.80;37.40
45785;DHT22;31489;51.404;5.474;2023-04-03T14:21:27;21.70;37.10
45785;DHT22;31489;51.404;5.474;2023-04-03T14:23:53;21.70;37.30
45785;DHT22;31489;51.404;5.474;2023-04-03T14:26:24;21.70;38.20
45785;DHT22;31489;51.404;5.474;2023-04-03T14:28:54;21.60;36.10
45785;DHT22;31489;51.404;5.474;2023-04-03T14:31:21;21.60;37.40
45785;DHT22;31489;51.404;5.474;2023-04-03T14:33:47;21.50;37.80
45785;DHT22;31489;51.404;5.474;2023-04-03T14:36:17;21.50;38.20
45785;DHT22;31489;51.404;5.474;2023-04-03T14:38:44;21.50;37.80
45785;DHT22;31489;51.404;5.474;2023-04-03T14:41:19;21.50;38.20
45785;DHT22;31489;51.404;5.474;2023-04-03T14:43:46;21.60;36.40
45785;DHT22;31489;51.404;5.474;2023-04-03T14:48:48;21.60;35.80
45785;DHT22;31489;51.404;5.474;2023-04-03T14:51:17;21.60;37.30
45785;DHT22;31489;51.404;5.474;2023-04-03T14:53:44;21.60;36.90
45785;DHT22;31489;51.404;5.474;2023-04-03T14:56:23;21.50;37.20
45785;DHT22;31489;51.404;5.474;2023-04-03T14:58:54;21.40;35.60
45785;DHT22;31489;51.404;5.474;2023-04-03T15:01:20;21.40;37.10
45785;DHT22;31489;51.404;5.474;2023-04-03T15:03:46;21.30;37.60
45785;DHT22;31489;51.404;5.474;2023-04-03T15:06:13;21.20;37.50
45785;DHT22;31489;51.404;5.474;2023-04-03T15:08:42;21.10;37.30
45785;DHT22;31489;51.404;5.474;2023-04-03T15:11:10;20.90;36.10
45785;DHT22;31489;51.404;5.474;2023-04-03T15:13:37;20.80;37.10
45785;DHT22;31489;51.404;5.474;2023-04-03T15:16:05;20.60;37.20
45785;DHT22;31489;51.404;5.474;2023-04-03T15:18:37;20.50;36.80
45785;DHT22;31489;51.404;5.474;2023-04-03T15:21:03;20.30;37.00
45785;DHT22;31489;51.404;5.474;2023-04-03T15:23:29;20.20;37.80
45785;DHT22;31489;51.404;5.474;2023-04-03T15:25:56;20.00;37.90
45785;DHT22;31489;51.404;5.474;2023-04-03T15:30:55;19.80;36.90
45785;DHT22;31489;51.404;5.474;2023-04-03T15:33:21;19.70;38.50
45785;DHT22;31489;51.404;5.474;2023-04-03T15:35:47;19.60;38.50
45785;DHT22;31489;51.404;5.474;2023-04-03T15:38:15;19.40;38.60
45785;DHT22;31489;51.404;5.474;2023-04-03T15:40:41;19.30;38.70
45785;DHT22;31489;51.404;5.474;2023-04-03T15:43:08;19.20;38.40
45785;DHT22;31489;51.404;5.474;2023-04-03T15:45:35;19.10;38.50
45785;DHT22;31489;51.404;5.474;2023-04-03T15:48:03;18.90;38.90
45785;DHT22;31489;51.404;5.474;2023-04-03T15:50:29;18.80;38.90
45785;DHT22;31489;51.404;5.474;2023-04-03T15:52:55;18.70;38.60
45785;DHT22;31489;51.404;5.474;2023-04-03T15:55:22;18.60;39.30
45785;DHT22;31489;51.404;5.474;2023-04-03T15:57:48;18.50;38.90
45785;DHT22;31489;51.404;5.474;2023-04-03T16:00:14;18.40;38.90
45785;DHT22;31489;51.404;5.474;2023-04-03T16:02:40;18.30;39.10
45785;DHT22;31489;51.404;5.474;2023-04-03T16:05:08;18.20;39.10
45785;DHT22;31489;51.404;5.474;2023-04-03T16:07:34;18.10;39.30
45785;DHT22;31489;51.404;5.474;2023-04-03T16:10:00;18.00;39.20
45785;DHT22;31489;51.404;5.474;2023-04-03T16:12:25;17.80;39.20
45785;DHT22;31489;51.404;5.474;2023-04-03T16:14:51;17.70;39.30
45785;DHT22;31489;51.404;5.474;2023-04-03T16:17:17;17.60;39.20
45785;DHT22;31489;51.404;5.474;2023-04-03T16:19:43;17.50;39.40
45785;DHT22;31489;51.404;5.474;2023-04-03T16:22:08;17.40;39.90
45785;DHT22;31489;51.404;5.474;2023-04-03T16:24:35;17.30;40.40
45785;DHT22;31489;51.404;5.474;2023-04-03T16:27:01;17.20;39.90
45785;DHT22;31489;51.404;5.474;2023-04-03T16:29:27;17.10;40.10
45785;DHT22;31489;51.404;5.474;2023-04-03T16:31:53;17.00;40.00
45785;DHT22;31489;51.404;5.474;2023-04-03T16:34:18;17.00;40.10
45785;DHT22;31489;51.404;5.474;2023-04-03T16:36:45;16.80;40.00
45785;DHT22;31489;51.404;5.474;2023-04-03T16:39:10;16.80;39.90
45785;DHT22;31489;51.404;5.474;2023-04-03T16:41:36;16.70;40.30
45785;DHT22;31489;51.404;5.474;2023-04-03T16:44:02;16.60;40.10
45785;DHT22;31489;51.404;5.474;2023-04-03T16:46:28;16.60;40.20
45785;DHT22;31489;51.404;5.474;2023-04-03T16:48:53;16.50;40.20
45785;DHT22;31489;51.404;5.474;2023-04-03T16:51:19;16.40;40.10
45785;DHT22;31489;51.404;5.474;2023-04-03T16:53:44;16.30;40.10
45785;DHT22;31489;51.404;5.474;2023-04-03T16:56:10;16.20;40.60
45785;DHT22;31489;51.404;5.474;2023-04-03T16:58:36;16.20;40.40
45785;DHT22;31489;51.404;5.474;2023-04-03T17:01:16;16.10;40.90
45785;DHT22;31489;51.404;5.474;2023-04-03T17:03:42;16.00;39.90
45785;DHT22;31489;51.404;5.474;2023-04-03T17:06:08;15.90;40.70
45785;DHT22;31489;51.404;5.474;2023-04-03T17:08:40;15.80;41.60
45785;DHT22;31489;51.404;5.474;2023-04-03T17:11:05;15.80;40.90
45785;DHT22;31489;51.404;5.474;2023-04-03T17:13:31;15.70;41.10
45785;DHT22;31489;51.404;5.474;2023-04-03T17:15:59;15.60;41.10
45785;DHT22;31489;51.404;5.474;2023-04-03T17:18:27;15.50;41.00
45785;DHT22;31489;51.404;5.474;2023-04-03T17:20:52;15.50;41.50
45785;DHT22;31489;51.404;5.474;2023-04-03T17:23:18;15.40;41.10
45785;DHT22;31489;51.404;5.474;2023-04-03T17:25:44;15.40;41.60
45785;DHT22;31489;51.404;5.474;2023-04-03T17:28:10;15.30;41.50
45785;DHT22;31489;51.404;5.474;2023-04-03T17:30:36;15.20;41.80
45785;DHT22;31489;51.404;5.474;2023-04-03T17:33:01;15.10;41.80
45785;DHT22;31489;51.404;5.474;2023-04-03T17:35:27;15.00;41.40
45785;DHT22;31489;51.404;5.474;2023-04-03T17:37:53;15.00;41.90
45785;DHT22;31489;51.404;5.474;2023-04-03T17:40:19;14.90;41.80
45785;DHT22;31489;51.404;5.474;2023-04-03T17:42:44;14.90;41.80
45785;DHT22;31489;51.404;5.474;2023-04-03T17:45:10;14.80;42.10
45785;DHT22;31489;51.404;5.474;2023-04-03T17:47:36;14.70;42.00
45785;DHT22;31489;51.404;5.474;2023-04-03T17:50:01;14.70;42.20